Time;durP1;ratioP1;P1;durP2;ratioP2;P2;SDS_P1;SDS_P2;PMS_P1;PMS_P2;Temp;Humidity;BMP_temperature;BMP_pressure;BME280_temperature;BME280_humidity;BME280_pressure;Samples;Min_cycle;Max_cycle;Signal;HPM_P1;HPM_P2
2022/11/20 00:00:48;;;;;;;;;;;;;;;8.79;100.00;99771.84;6279120;22;19911;-86
2022/11/20 00:03:13;;;;;;;;;;;;;;;8.97;100.00;99773.47;6279372;22;19957;-88
2022/11/20 00:05:38;;;;;;;;;;;;;;;8.90;100.00;99767.19;6278873;22;20345;-88
2022/11/20 00:08:04;;;;;;;;;;;;;;;8.94;100.00;99771.16;6279023;22;19911;-86
2022/11/20 00:10:29;;;;;;;;;;;;;;;9.04;100.00;99769.16;6279398;22;19911;-87
2022/11/20 00:12:58;;;;;;;;;;;;;;;9.14;100.00;99775.88;6279542;22;19942;-88
2022/11/20 00:15:23;;;;;;;;;;;;;;;9.12;100.00;99771.75;6279655;22;19917;-87
2022/11/20 00:17:49;;;;;;;;;;;;;;;9.01;100.00;99770.31;6280576;22;20230;-86
2022/11/20 00:20:14;;;;;;;;;;;;;;;9.10;100.00;99776.38;6282294;22;19911;-88
2022/11/20 00:22:39;;;;;;;;;;;;;;;9.07;100.00;99768.81;6288682;22;19915;-84
2022/11/20 00:25:05;;;;;;;;;;;;;;;9.19;100.00;99767.41;6300743;22;19950;-84
2022/11/20 00:27:30;;;;;;;;;;;;;;;9.22;100.00;99757.34;6292156;22;20285;-86
2022/11/20 00:29:56;;;;;;;;;;;;;;;9.23;100.00;99766.09;6279506;22;19911;-87
2022/11/20 00:32:21;;;;;;;;;;;;;;;9.24;100.00;99770.41;6251567;22;19974;-86
2022/11/20 00:34:46;;;;;;;;;;;;;;;8.94;100.00;99765.88;6279333;22;19911;-87
2022/11/20 00:37:12;;;;;;;;;;;;;;;8.62;100.00;99764.94;6278575;22;19915;-86
2022/11/20 00:39:38;;;;;;;;;;;;;;;8.47;100.00;99764.00;6278647;22;19911;-89
2022/11/20 00:42:03;;;;;;;;;;;;;;;8.64;100.00;99762.16;6251350;22;20338;-85
2022/11/20 00:44:29;;;;;;;;;;;;;;;8.73;100.00;99769.88;6279196;22;19974;-86
2022/11/20 00:46:54;;;;;;;;;;;;;;;8.87;100.00;99776.28;6280233;22;19918;-85
2022/11/20 00:49:19;;;;;;;;;;;;;;;8.87;100.00;99772.81;6227764;22;19915;-88
2022/11/20 00:51:45;;;;;;;;;;;;;;;8.80;100.00;99772.69;6253614;22;19941;-86
2022/11/20 00:54:10;;;;;;;;;;;;;;;8.71;100.00;99777.16;6279358;22;19907;-87
2022/11/20 00:56:36;;;;;;;;;;;;;;;8.75;100.00;99774.97;6278791;22;20235;-83
2022/11/20 00:59:01;;;;;;;;;;;;;;;8.87;100.00;99775.47;6278470;22;20322;-85
2022/11/20 01:01:28;;;;;;;;;;;;;;;8.93;100.00;99782.72;6278607;22;19937;-85
2022/11/20 01:03:55;;;;;;;;;;;;;;;8.71;100.00;99785.09;6278515;22;19907;-86
2022/11/20 01:06:24;;;;;;;;;;;;;;;8.78;100.00;99785.25;6279105;22;19938;-86
2022/11/20 01:08:52;;;;;;;;;;;;;;;8.61;100.00;99779.16;6278406;22;19907;-83
2022/11/20 01:11:19;;;;;;;;;;;;;;;8.60;100.00;99780.16;6277962;22;19951;-86
2022/11/20 01:13:45;;;;;;;;;;;;;;;8.63;100.00;99774.53;6279147;22;19907;-87
2022/11/20 01:16:12;;;;;;;;;;;;;;;8.54;100.00;99775.53;6251298;22;19907;-87
2022/11/20 01:18:38;;;;;;;;;;;;;;;8.47;100.00;99777.19;6280210;22;19986;-85
2022/11/20 01:21:09;;;;;;;;;;;;;;;8.38;100.00;99786.13;6289462;22;19957;-84
2022/11/20 01:23:35;;;;;;;;;;;;;;;8.39;100.00;99781.63;6278812;22;19911;-87
2022/11/20 01:26:02;;;;;;;;;;;;;;;8.35;100.00;99783.81;6251886;22;19914;-85
2022/11/20 01:28:28;;;;;;;;;;;;;;;8.34;100.00;99774.25;6251796;22;19911;-86
2022/11/20 01:30:54;;;;;;;;;;;;;;;8.51;100.00;99775.88;6278596;22;19942;-85
2022/11/20 01:33:19;;;;;;;;;;;;;;;8.62;100.00;99775.50;6278230;22;19915;-85
2022/11/20 01:35:45;;;;;;;;;;;;;;;8.57;100.00;99788.41;6278348;22;19911;-86
2022/11/20 01:38:10;;;;;;;;;;;;;;;8.59;100.00;99781.13;6277826;22;19911;-84
2022/11/20 01:40:35;;;;;;;;;;;;;;;8.48;100.00;99789.41;6276480;22;19933;-84
2022/11/20 01:43:30;;;;;;;;;;;;;;;8.43;100.00;99791.72;6224113;22;19915;-85
2022/11/20 01:46:00;;;;;;;;;;;;;;;8.44;100.00;99785.44;6250759;22;19911;-85
2022/11/20 01:48:42;;;;;;;;;;;;;;;8.37;100.00;99792.38;6251317;22;19915;-84
2022/11/20 01:51:31;;;;;;;;;;;;;;;8.34;100.00;99791.88;6278769;22;19923;-86
2022/11/20 01:53:58;;;;;;;;;;;;;;;8.05;100.00;99795.81;6235480;22;19947;-86
2022/11/20 01:56:24;;;;;;;;;;;;;;;8.10;100.00;99800.59;6278598;22;19911;-83
2022/11/20 01:58:52;;;;;;;;;;;;;;;8.04;100.00;99801.25;6278546;22;19911;-86
2022/11/20 02:01:18;;;;;;;;;;;;;;;8.11;100.00;99807.53;6279292;22;20234;-84
2022/11/20 02:03:44;;;;;;;;;;;;;;;8.16;100.00;99805.22;6280093;22;19912;-84
2022/11/20 02:06:21;;;;;;;;;;;;;;;8.27;100.00;99803.09;6279286;22;19930;-85
2022/11/20 02:08:46;;;;;;;;;;;;;;;8.31;100.00;99800.97;6290960;22;19913;-86
2022/11/20 02:11:12;;;;;;;;;;;;;;;8.27;100.00;99807.53;6296039;22;19911;-85
2022/11/20 02:13:43;;;;;;;;;;;;;;;8.14;100.00;99808.03;6300420;22;19952;-87
2022/11/20 02:16:20;;;;;;;;;;;;;;;8.09;100.00;99798.94;6303259;22;20010;-85
2022/11/20 02:18:46;;;;;;;;;;;;;;;8.02;100.00;99792.69;6304818;22;19929;-86
2022/11/20 02:21:44;;;;;;;;;;;;;;;7.70;100.00;99799.53;6300671;22;19915;-88
2022/11/20 02:24:12;;;;;;;;;;;;;;;7.75;100.00;99797.25;6226997;22;19911;-85
2022/11/20 02:26:58;;;;;;;;;;;;;;;7.64;100.00;99797.56;6281341;22;19915;-87
2022/11/20 02:29:29;;;;;;;;;;;;;;;7.76;100.00;99783.06;6279846;22;20364;-86
2022/11/20 02:31:56;;;;;;;;;;;;;;;7.54;100.00;99788.94;6279564;22;19919;-85
2022/11/20 02:34:21;;;;;;;;;;;;;;;7.59;100.00;99786.63;6279008;22;19964;-87
2022/11/20 02:36:48;;;;;;;;;;;;;;;7.73;100.00;99793.09;6279616;22;19911;-88
2022/11/20 02:39:16;;;;;;;;;;;;;;;7.88;100.00;99795.94;6279233;22;19973;-87
2022/11/20 02:41:42;;;;;;;;;;;;;;;7.76;100.00;99790.97;6278083;22;20331;-86
2022/11/20 02:44:07;;;;;;;;;;;;;;;7.95;100.00;99794.31;6281846;22;19950;-83
2022/11/20 02:46:33;;;;;;;;;;;;;;;7.82;100.00;99798.22;6292674;22;19956;-86
2022/11/20 02:48:58;;;;;;;;;;;;;;;7.74;100.00;99785.06;6279217;22;19911;-88
2022/11/20 02:51:24;;;;;;;;;;;;;;;7.62;100.00;99793.44;6279020;22;19961;-86
2022/11/20 02:53:49;;;;;;;;;;;;;;;7.74;100.00;99792.97;6279378;22;19915;-88
2022/11/20 02:56:15;;;;;;;;;;;;;;;7.75;100.00;99797.25;6280034;22;19918;-85
2022/11/20 02:58:40;;;;;;;;;;;;;;;7.56;100.00;99800.16;6280677;22;19911;-84
2022/11/20 03:01:06;;;;;;;;;;;;;;;7.73;100.00;99799.22;6252041;22;19961;-85
2022/11/20 03:03:31;;;;;;;;;;;;;;;7.88;100.00;99798.59;6278221;22;19918;-85
2022/11/20 03:05:58;;;;;;;;;;;;;;;8.01;100.00;99791.84;6278536;22;19907;-83
2022/11/20 03:08:24;;;;;;;;;;;;;;;7.71;100.00;99790.66;6251391;22;19947;-85
2022/11/20 03:10:49;;;;;;;;;;;;;;;7.53;100.00;99787.28;6278464;22;19918;-87
2022/11/20 03:13:14;;;;;;;;;;;;;;;7.43;100.00;99783.97;6278863;22;19911;-83
2022/11/20 03:15:40;;;;;;;;;;;;;;;7.42;100.00;99792.88;6278236;22;19911;-88
2022/11/20 03:18:05;;;;;;;;;;;;;;;7.54;100.00;99788.13;6277989;22;20383;-86
2022/11/20 03:20:32;;;;;;;;;;;;;;;7.44;100.00;99784.78;6278753;22;19907;-88
2022/11/20 03:22:58;;;;;;;;;;;;;;;7.38;100.00;99783.63;6278426;22;19911;-84
2022/11/20 03:25:23;;;;;;;;;;;;;;;7.47;100.00;99793.22;6278435;22;19937;-84
2022/11/20 03:27:49;;;;;;;;;;;;;;;7.32;100.00;99799.25;6278149;22;19918;-87
2022/11/20 03:30:15;;;;;;;;;;;;;;;7.17;100.00;99801.66;6277640;22;19915;-89
2022/11/20 03:32:40;;;;;;;;;;;;;;;7.32;100.00;99810.63;6278087;22;19907;-85
2022/11/20 03:35:12;;;;;;;;;;;;;;;7.43;100.00;99812.13;6277506;22;19986;-87
2022/11/20 03:37:38;;;;;;;;;;;;;;;7.64;100.00;99809.91;6250704;22;19915;-86
2022/11/20 03:40:04;;;;;;;;;;;;;;;7.47;100.00;99809.03;6276827;22;20345;-86
2022/11/20 03:42:44;;;;;;;;;;;;;;;7.53;100.00;99811.03;6277534;22;19912;-84
2022/11/20 03:45:10;;;;;;;;;;;;;;;7.67;100.00;99815.69;6277356;22;19911;-86
2022/11/20 03:47:35;;;;;;;;;;;;;;;7.75;100.00;99815.72;6277408;22;19964;-85
2022/11/20 03:50:01;;;;;;;;;;;;;;;7.79;100.00;99814.38;6277333;22;19935;-84
2022/11/20 03:52:26;;;;;;;;;;;;;;;7.88;100.00;99824.97;6277457;22;19918;-87
2022/11/20 03:54:52;;;;;;;;;;;;;;;7.80;100.00;99823.97;6276949;22;20497;-84
2022/11/20 03:57:17;;;;;;;;;;;;;;;7.82;100.00;99829.09;6277565;22;19915;-83
2022/11/20 03:59:43;;;;;;;;;;;;;;;7.75;100.00;99831.56;6277028;22;19915;-86
2022/11/20 04:02:08;;;;;;;;;;;;;;;7.84;100.00;99834.19;6277526;22;19917;-87
2022/11/20 04:04:33;;;;;;;;;;;;;;;7.67;100.00;99825.41;6277104;22;20386;-86
2022/11/20 04:06:59;;;;;;;;;;;;;;;7.75;100.00;99836.81;6277482;22;19918;-86
2022/11/20 04:09:24;;;;;;;;;;;;;;;7.74;100.00;99832.53;6277686;22;19986;-88
2022/11/20 04:11:50;;;;;;;;;;;;;;;7.75;100.00;99839.47;6259862;22;19964;-86
2022/11/20 04:14:16;;;;;;;;;;;;;;;7.76;100.00;99837.63;6277915;22;19911;-85
2022/11/20 04:16:42;;;;;;;;;;;;;;;7.68;100.00;99838.44;6277532;22;19960;-86
2022/11/20 04:19:10;;;;;;;;;;;;;;;7.82;100.00;99841.44;6250640;22;19990;-87
2022/11/20 04:21:35;;;;;;;;;;;;;;;7.74;100.00;99837.78;6250690;22;20330;-86
2022/11/20 04:24:00;;;;;;;;;;;;;;;7.72;100.00;99833.69;6277532;22;19911;-85
2022/11/20 04:26:27;;;;;;;;;;;;;;;7.61;100.00;99847.97;6277439;22;19907;-86
2022/11/20 04:28:53;;;;;;;;;;;;;;;7.68;100.00;99841.09;6277330;22;19915;-86
2022/11/20 04:31:19;;;;;;;;;;;;;;;7.57;100.00;99845.81;6250299;22;20409;-90
2022/11/20 04:33:45;;;;;;;;;;;;;;;7.45;100.00;99841.81;6277467;22;19911;-88
2022/11/20 04:36:14;;;;;;;;;;;;;;;7.55;100.00;99843.34;6249924;22;19935;-86
2022/11/20 04:38:40;;;;;;;;;;;;;;;7.49;100.00;99841.31;6277540;22;19918;-87
2022/11/20 04:41:07;;;;;;;;;;;;;;;7.26;100.00;99842.88;6277471;22;19965;-88
2022/11/20 04:43:33;;;;;;;;;;;;;;;7.29;100.00;99845.22;6250109;22;20290;-88
2022/11/20 04:45:59;;;;;;;;;;;;;;;7.15;100.00;99837.88;6277243;22;19940;-89
2022/11/20 04:48:25;;;;;;;;;;;;;;;7.19;100.00;99841.88;6277206;22;19907;-86
2022/11/20 04:50:51;;;;;;;;;;;;;;;7.02;100.00;99840.13;6277871;22;19915;-86
2022/11/20 04:53:17;;;;;;;;;;;;;;;7.08;100.00;99845.59;6277161;22;20000;-84
2022/11/20 04:55:45;;;;;;;;;;;;;;;7.17;100.00;99849.09;6277508;22;19962;-85
2022/11/20 04:58:11;;;;;;;;;;;;;;;7.22;100.00;99849.47;6277147;22;20326;-85
2022/11/20 05:00:36;;;;;;;;;;;;;;;7.15;100.00;99848.44;6277163;22;19946;-86
2022/11/20 05:03:02;;;;;;;;;;;;;;;7.08;100.00;99853.50;6277406;22;19976;-86
2022/11/20 05:05:27;;;;;;;;;;;;;;;6.95;100.00;99860.16;6251826;22;19911;-84
2022/11/20 05:07:52;;;;;;;;;;;;;;;7.03;100.00;99860.19;6286119;22;19918;-83
2022/11/20 05:10:18;;;;;;;;;;;;;;;7.21;100.00;99864.44;6286466;22;20331;-84
2022/11/20 05:12:43;;;;;;;;;;;;;;;7.31;100.00;99866.97;6277837;22;19960;-85
2022/11/20 05:15:09;;;;;;;;;;;;;;;7.26;100.00;99874.50;6277087;22;19918;-86
2022/11/20 05:17:34;;;;;;;;;;;;;;;7.21;100.00;99877.63;6276798;22;19946;-86
2022/11/20 05:20:00;;;;;;;;;;;;;;;7.22;100.00;99866.06;6276943;22;19911;-84
2022/11/20 05:22:25;;;;;;;;;;;;;;;7.13;100.00;99874.09;6277683;22;19962;-86
2022/11/20 05:24:50;;;;;;;;;;;;;;;6.96;100.00;99875.78;6279719;22;19986;-85
2022/11/20 05:27:16;;;;;;;;;;;;;;;6.96;100.00;99877.63;6283554;22;19915;-84
2022/11/20 05:29:41;;;;;;;;;;;;;;;6.79;100.00;99876.69;6304773;22;19915;-82
2022/11/20 05:32:09;;;;;;;;;;;;;;;6.59;100.00;99876.03;6255567;22;19919;-84
2022/11/20 05:34:41;;;;;;;;;;;;;;;6.48;100.00;99881.53;6282497;22;19915;-85
2022/11/20 05:37:07;;;;;;;;;;;;;;;6.81;100.00;99881.78;6293175;22;19911;-88
2022/11/20 05:39:33;;;;;;;;;;;;;;;6.87;100.00;99891.69;6283972;22;19914;-86
2022/11/20 05:44:42;;;;;;;;;;;;;;;6.94;100.00;99905.91;6278922;22;20322;-86
2022/11/20 05:47:07;;;;;;;;;;;;;;;6.86;100.00;99906.66;6279335;22;19911;-86
2022/11/20 05:49:33;;;;;;;;;;;;;;;6.80;100.00;99904.66;6280175;22;19911;-87
2022/11/20 05:51:58;;;;;;;;;;;;;;;6.49;100.00;99906.06;6280382;22;20259;-87
2022/11/20 05:54:23;;;;;;;;;;;;;;;6.59;100.00;99912.91;6253377;22;20037;-86
2022/11/20 05:56:49;;;;;;;;;;;;;;;6.69;100.00;99908.34;6280508;22;19911;-88
2022/11/20 05:59:14;;;;;;;;;;;;;;;6.35;100.00;99904.78;6279863;22;19911;-85
2022/11/20 06:01:40;;;;;;;;;;;;;;;6.33;100.00;99909.34;6281294;22;20404;-83
2022/11/20 06:04:05;;;;;;;;;;;;;;;6.48;100.00;99910.50;6293185;22;19937;-84
2022/11/20 06:06:31;;;;;;;;;;;;;;;6.62;100.00;99906.50;6292247;22;19975;-82
2022/11/20 06:08:58;;;;;;;;;;;;;;;6.80;100.00;99914.34;6292207;22;20331;-83
2022/11/20 06:11:27;;;;;;;;;;;;;;;6.78;100.00;99911.06;6292421;22;19907;-85
2022/11/20 06:13:55;;;;;;;;;;;;;;;6.86;100.00;99911.13;6251818;22;19949;-86
2022/11/20 06:16:21;;;;;;;;;;;;;;;6.81;100.00;99911.59;6290842;22;19959;-83
2022/11/20 06:18:47;;;;;;;;;;;;;;;6.75;100.00;99907.75;6290102;22;19918;-83
2022/11/20 06:21:14;;;;;;;;;;;;;;;6.38;100.00;99909.75;6292284;22;19915;-82
2022/11/20 06:23:39;;;;;;;;;;;;;;;6.36;100.00;99906.44;6286767;22;19911;-83
2022/11/20 06:26:06;;;;;;;;;;;;;;;6.26;100.00;99910.94;6278767;22;19911;-83
2022/11/20 06:28:31;;;;;;;;;;;;;;;6.50;100.00;99912.94;6279113;22;19942;-89
2022/11/20 06:30:57;;;;;;;;;;;;;;;6.62;100.00;99917.88;6253174;22;19915;-86
2022/11/20 06:33:23;;;;;;;;;;;;;;;6.58;100.00;99919.13;6278372;22;19911;-84
2022/11/20 06:35:48;;;;;;;;;;;;;;;6.75;100.00;99918.31;6279165;22;19911;-82
2022/11/20 06:38:14;;;;;;;;;;;;;;;6.51;100.00;99936.50;6252137;22;19917;-84
2022/11/20 06:40:40;;;;;;;;;;;;;;;6.40;100.00;99933.25;6279006;22;19959;-86
2022/11/20 06:43:05;;;;;;;;;;;;;;;6.29;100.00;99938.75;6275782;22;19911;-83
2022/11/20 06:45:30;;;;;;;;;;;;;;;6.16;100.00;99952.28;6250815;22;19918;-86
2022/11/20 06:47:57;;;;;;;;;;;;;;;6.39;100.00;99958.78;6279009;22;19911;-87
2022/11/20 06:50:22;;;;;;;;;;;;;;;6.29;100.00;99965.91;6250481;22;19915;-87
2022/11/20 06:52:50;;;;;;;;;;;;;;;6.50;100.00;99966.44;6278543;22;19911;-84
2022/11/20 06:55:16;;;;;;;;;;;;;;;6.62;100.00;99964.41;6252298;22;20216;-85
2022/11/20 06:57:41;;;;;;;;;;;;;;;6.68;100.00;99969.91;6263249;22;19975;-84
2022/11/20 07:00:07;;;;;;;;;;;;;;;6.89;100.00;99974.03;6297354;22;19915;-85
2022/11/20 07:02:32;;;;;;;;;;;;;;;7.05;100.00;99982.91;6300556;22;19919;-84
2022/11/20 07:04:58;;;;;;;;;;;;;;;7.42;100.00;99981.84;6291230;22;19911;-83
2022/11/20 07:07:23;;;;;;;;;;;;;;;7.53;100.00;99984.22;6298313;22;19922;-84
2022/11/20 07:09:48;;;;;;;;;;;;;;;7.50;100.00;99988.00;6288736;22;19907;-85
2022/11/20 07:12:14;;;;;;;;;;;;;;;7.70;100.00;99989.44;6280144;22;19964;-83
2022/11/20 07:14:39;;;;;;;;;;;;;;;7.78;100.00;100002.69;6279632;22;19918;-84
2022/11/20 07:17:04;;;;;;;;;;;;;;;7.30;100.00;100002.34;6252103;22;19960;-82
2022/11/20 07:19:30;;;;;;;;;;;;;;;7.11;100.00;100005.19;6279081;22;19911;-82
2022/11/20 07:21:55;;;;;;;;;;;;;;;7.07;100.00;100002.00;6278951;22;19991;-83
2022/11/20 07:24:20;;;;;;;;;;;;;;;7.27;100.00;100002.66;6279383;22;19961;-82
2022/11/20 07:26:48;;;;;;;;;;;;;;;6.93;100.00;100005.19;6277692;22;19965;-83
2022/11/20 07:29:14;;;;;;;;;;;;;;;7.13;100.00;100011.94;6277265;22;19942;-82
2022/11/20 07:31:40;;;;;;;;;;;;;;;7.13;100.00;100016.38;6277342;22;20224;-83
2022/11/20 07:34:06;;;;;;;;;;;;;;;6.97;100.00;100026.78;6246573;22;19915;-82
2022/11/20 07:36:31;;;;;;;;;;;;;;;6.83;100.00;100025.50;6276769;22;19907;-85
2022/11/20 07:38:56;;;;;;;;;;;;;;;6.93;100.00;100026.25;6252322;22;19918;-84
2022/11/20 07:41:22;;;;;;;;;;;;;;;7.19;100.00;100021.06;6277141;22;20353;-81
2022/11/20 07:43:47;;;;;;;;;;;;;;;7.12;100.00;100027.91;6276918;22;20315;-83
2022/11/20 07:46:12;;;;;;;;;;;;;;;7.04;100.00;100027.84;6276778;22;19961;-81
2022/11/20 07:48:38;;;;;;;;;;;;;;;7.06;100.00;100039.88;6277076;22;19907;-79
2022/11/20 07:51:03;;;;;;;;;;;;;;;7.33;100.00;100041.59;6278072;22;19915;-81
2022/11/20 07:53:28;;;;;;;;;;;;;;;7.10;100.00;100043.88;6278545;22;19918;-83
2022/11/20 07:55:54;;;;;;;;;;;;;;;7.54;100.00;100043.88;6283959;22;19911;-81
2022/11/20 07:58:20;;;;;;;;;;;;;;;7.44;100.00;100053.69;6286145;22;20004;-82
2022/11/20 08:00:45;;;;;;;;;;;;;;;7.38;100.00;100055.16;6296363;22;19915;-84
2022/11/20 08:03:11;;;;;;;;;;;;;;;7.57;100.00;100057.59;6277288;22;19911;-81
2022/11/20 08:05:37;;;;;;;;;;;;;;;7.66;100.00;100064.56;6277178;22;19980;-82
2022/11/20 08:08:02;;;;;;;;;;;;;;;7.67;100.00;100063.59;6276919;22;19914;-83
2022/11/20 08:10:29;;;;;;;;;;;;;;;7.74;100.00;100064.63;6276982;22;19918;-83
2022/11/20 08:15:39;;;;;;;;;;;;;;;7.61;100.00;100064.22;6249736;22;19911;-84
2022/11/20 08:18:06;;;;;;;;;;;;;;;7.52;100.00;100065.16;6248529;22;19961;-81
2022/11/20 08:20:32;;;;;;;;;;;;;;;7.78;100.00;100063.34;6276651;22;19956;-82
2022/11/20 08:22:59;;;;;;;;;;;;;;;7.95;100.00;100066.09;6275768;22;20582;-82
2022/11/20 08:25:25;;;;;;;;;;;;;;;8.05;100.00;100069.44;6279772;22;20254;-81
2022/11/20 08:27:50;;;;;;;;;;;;;;;8.07;100.00;100075.38;6245521;22;19895;-80
2022/11/20 08:30:16;;;;;;;;;;;;;;;8.03;100.00;100071.38;6277162;22;19987;-85
2022/11/20 08:32:41;;;;;;;;;;;;;;;8.47;100.00;100075.59;6276818;22;19918;-84
2022/11/20 08:35:07;;;;;;;;;;;;;;;8.20;100.00;100071.31;6275561;22;19982;-84
2022/11/20 08:37:35;;;;;;;;;;;;;;;8.46;100.00;100079.22;6275857;22;19922;-86
2022/11/20 08:40:00;;;;;;;;;;;;;;;8.61;100.00;100080.28;6275741;22;19914;-83
2022/11/20 08:42:27;;;;;;;;;;;;;;;8.41;100.00;100084.16;6275982;22;20246;-87
2022/11/20 08:44:52;;;;;;;;;;;;;;;8.29;100.00;100086.25;6275481;22;19911;-83
2022/11/20 08:47:17;;;;;;;;;;;;;;;8.51;100.00;100079.59;6275682;22;19942;-85
2022/11/20 08:49:43;;;;;;;;;;;;;;;8.88;100.00;100097.69;6276948;22;19957;-83
2022/11/20 08:52:08;;;;;;;;;;;;;;;8.89;100.00;100094.03;6279963;22;19911;-85
2022/11/20 08:54:33;;;;;;;;;;;;;;;9.01;100.00;100094.56;6279908;22;19990;-82
2022/11/20 08:56:59;;;;;;;;;;;;;;;9.13;100.00;100102.03;6275945;22;20018;-84
2022/11/20 08:59:24;;;;;;;;;;;;;;;9.43;100.00;100097.91;6277506;22;19911;-82
2022/11/20 09:01:49;;;;;;;;;;;;;;;9.00;100.00;100095.56;6278226;22;19925;-83
2022/11/20 09:04:15;;;;;;;;;;;;;;;8.80;100.00;100095.03;6279280;22;20319;-91
2022/11/20 09:06:41;;;;;;;;;;;;;;;8.82;100.00;100090.38;6254496;22;19992;-83
2022/11/20 09:09:06;;;;;;;;;;;;;;;8.63;100.00;100088.84;6251413;22;19957;-83
2022/11/20 09:11:31;;;;;;;;;;;;;;;8.55;100.00;100086.19;6251748;22;19960;-83
2022/11/20 09:13:58;;;;;;;;;;;;;;;8.53;100.00;100092.59;6279712;22;19911;-85
2022/11/20 09:16:23;;;;;;;;;;;;;;;8.52;100.00;100094.41;6280130;22;19914;-80
2022/11/20 09:18:50;;;;;;;;;;;;;;;8.78;100.00;100095.16;6280689;22;20315;-86
2022/11/20 09:21:15;;;;;;;;;;;;;;;8.83;100.00;100095.53;6254370;22;20249;-81
2022/11/20 09:23:40;;;;;;;;;;;;;;;9.00;100.00;100101.69;6277594;22;19911;-81
2022/11/20 09:26:07;;;;;;;;;;;;;;;9.01;100.00;100098.06;6279380;22;19911;-83
2022/11/20 09:28:32;;;;;;;;;;;;;;;9.01;100.00;100097.22;6281258;22;19915;-83
2022/11/20 09:30:58;;;;;;;;;;;;;;;8.93;100.00;100094.53;6253723;22;19918;-82
2022/11/20 09:33:23;;;;;;;;;;;;;;;9.01;100.00;100103.34;6279174;22;19918;-83
2022/11/20 09:35:49;;;;;;;;;;;;;;;8.90;100.00;100100.16;6279029;22;19915;-82
2022/11/20 09:38:14;;;;;;;;;;;;;;;8.91;100.00;100101.81;6279704;22;20250;-84
2022/11/20 09:40:56;;;;;;;;;;;;;;;8.94;100.00;100102.31;6286017;22;19911;-83
2022/11/20 09:43:41;;;;;;;;;;;;;;;8.82;100.00;100098.31;6230833;22;19990;-87
2022/11/20 09:46:28;;;;;;;;;;;;;;;8.87;100.00;100103.13;6217939;22;19911;-85
2022/11/20 09:48:57;;;;;;;;;;;;;;;8.70;100.00;100104.88;6280755;22;19907;-83
2022/11/20 09:51:27;;;;;;;;;;;;;;;8.66;100.00;100101.75;6288834;22;19907;-80
2022/11/20 09:54:01;;;;;;;;;;;;;;;8.70;100.00;100100.44;6295346;22;20398;-79
2022/11/20 09:56:28;;;;;;;;;;;;;;;8.82;100.00;100095.66;6252560;22;19946;-82
2022/11/20 09:59:03;;;;;;;;;;;;;;;8.88;100.00;100096.88;6252811;22;20295;-83
2022/11/20 10:01:36;;;;;;;;;;;;;;;8.73;100.00;100100.13;6281575;22;19942;-82
2022/11/20 10:04:01;;;;;;;;;;;;;;;9.12;100.00;100104.81;6280245;22;20006;-81
2022/11/20 10:06:31;;;;;;;;;;;;;;;9.16;100.00;100095.56;6255398;22;19911;-86
2022/11/20 10:09:05;;;;;;;;;;;;;;;9.33;100.00;100091.97;6256325;22;19911;-85
2022/11/20 10:11:35;;;;;;;;;;;;;;;9.45;100.00;100084.50;6253507;22;20333;-87
2022/11/20 10:14:10;;;;;;;;;;;;;;;9.30;100.00;100076.44;6280014;22;20247;-84
2022/11/20 10:16:54;;;;;;;;;;;;;;;9.07;100.00;100080.72;6280613;22;20357;-82
2022/11/20 10:19:38;;;;;;;;;;;;;;;9.25;100.00;100070.78;6281901;22;19918;-83
2022/11/20 10:22:06;;;;;;;;;;;;;;;9.08;100.00;100069.16;6280626;22;20234;-87
2022/11/20 10:24:47;;;;;;;;;;;;;;;9.07;100.00;100070.13;6279332;22;20319;-87
2022/11/20 10:27:31;;;;;;;;;;;;;;;9.25;100.00;100073.44;6258640;22;19918;-83
2022/11/20 10:30:02;;;;;;;;;;;;;;;9.05;100.00;100077.41;6280482;22;20384;-85
2022/11/20 10:32:48;;;;;;;;;;;;;;;9.04;100.00;100073.94;6286076;22;19911;-84
2022/11/20 10:35:13;;;;;;;;;;;;;;;8.98;100.00;100076.41;6277414;22;19911;-83
2022/11/20 10:37:47;;;;;;;;;;;;;;;8.94;100.00;100069.78;6277969;22;19918;-83
2022/11/20 10:40:18;;;;;;;;;;;;;;;9.00;100.00;100069.13;6272067;22;19919;-81
2022/11/20 10:42:51;;;;;;;;;;;;;;;9.05;100.00;100067.63;6285340;22;19938;-83
2022/11/20 10:45:29;;;;;;;;;;;;;;;9.13;100.00;100069.47;6281185;22;20287;-80
2022/11/20 10:48:20;;;;;;;;;;;;;;;9.12;100.00;100068.63;6278017;22;19915;-82
2022/11/20 10:51:15;;;;;;;;;;;;;;;9.16;100.00;100069.16;6258011;22;20350;-86
2022/11/20 10:53:40;;;;;;;;;;;;;;;9.30;100.00;100071.16;6280190;22;20332;-82
2022/11/20 10:56:11;;;;;;;;;;;;;;;9.26;100.00;100067.16;6289990;22;19918;-85
2022/11/20 10:59:05;;;;;;;;;;;;;;;9.28;100.00;100067.81;6285581;22;19946;-85
2022/11/20 11:01:39;;;;;;;;;;;;;;;9.26;100.00;100075.09;6282229;22;19919;-84
2022/11/20 11:04:15;;;;;;;;;;;;;;;9.37;100.00;100066.03;6281545;22;19953;-84
2022/11/20 11:06:46;;;;;;;;;;;;;;;9.32;100.00;100059.41;6281473;22;19956;-87
2022/11/20 11:09:15;;;;;;;;;;;;;;;9.21;100.00;100065.00;6283546;22;19939;-86
2022/11/20 11:11:40;;;;;;;;;;;;;;;9.47;100.00;100054.28;6290127;22;19907;-85
2022/11/20 11:14:33;;;;;;;;;;;;;;;9.44;100.00;100051.97;6256115;22;19911;-85
2022/11/20 11:16:59;;;;;;;;;;;;;;;9.36;100.00;100059.91;6296578;22;19911;-84
2022/11/20 11:19:27;;;;;;;;;;;;;;;9.47;100.00;100051.66;6293202;22;19911;-86
2022/11/20 11:21:56;;;;;;;;;;;;;;;9.42;100.00;100051.28;6289534;22;19922;-85
2022/11/20 11:24:44;;;;;;;;;;;;;;;9.56;100.00;100048.00;6284050;22;19917;-87
2022/11/20 11:27:17;;;;;;;;;;;;;;;9.56;100.00;100044.50;6293730;22;19911;-84
2022/11/20 11:29:47;;;;;;;;;;;;;;;9.63;100.00;100035.75;6254905;22;19919;-81
2022/11/20 11:32:31;;;;;;;;;;;;;;;9.51;100.00;100036.25;6253070;22;19911;-81
2022/11/20 11:35:04;;;;;;;;;;;;;;;9.61;100.00;100032.44;6257987;22;19914;-81
2022/11/20 11:37:35;;;;;;;;;;;;;;;9.70;100.00;100028.78;6252567;22;19950;-90
2022/11/20 11:40:07;;;;;;;;;;;;;;;9.73;100.00;100028.44;6261315;22;20248;-83
2022/11/20 11:42:33;;;;;;;;;;;;;;;9.72;100.00;100024.16;6238890;22;19959;-83
2022/11/20 11:45:06;;;;;;;;;;;;;;;9.88;100.00;100022.47;6292318;22;19965;-82
2022/11/20 11:47:37;;;;;;;;;;;;;;;9.77;100.00;100021.84;6267886;22;19938;-83
2022/11/20 11:50:09;;;;;;;;;;;;;;;9.92;100.00;100019.28;6300570;22;19959;-88
2022/11/20 11:52:57;;;;;;;;;;;;;;;9.86;100.00;100012.03;6300959;22;19899;-87
2022/11/20 11:55:44;;;;;;;;;;;;;;;9.99;100.00;100017.63;6273916;22;19941;-88
2022/11/20 11:58:14;;;;;;;;;;;;;;;9.98;100.00;100017.78;6283608;22;20468;-86
2022/11/20 12:00:41;;;;;;;;;;;;;;;9.98;100.00;100015.13;6278572;22;19911;-87
2022/11/20 12:03:14;;;;;;;;;;;;;;;10.09;100.00;100015.59;6282010;22;19918;-87
2022/11/20 12:05:44;;;;;;;;;;;;;;;10.23;100.00;100019.41;6278934;22;19957;-87
2022/11/20 12:08:31;;;;;;;;;;;;;;;10.06;100.00;100008.00;6285583;22;19911;-87
2022/11/20 12:11:06;;;;;;;;;;;;;;;10.05;100.00;100009.00;6288388;22;19911;-81
2022/11/20 12:14:08;;;;;;;;;;;;;;;10.16;100.00;100010.47;6253958;22;19957;-83
2022/11/20 12:16:35;;;;;;;;;;;;;;;10.30;100.00;100007.94;6277069;22;19918;-84
2022/11/20 12:19:01;;;;;;;;;;;;;;;10.16;100.00;100000.72;6278059;22;19934;-85
2022/11/20 12:21:26;;;;;;;;;;;;;;;10.26;100.00;100004.00;6280451;22;19954;-86
2022/11/20 12:24:03;;;;;;;;;;;;;;;10.28;100.00;100006.44;6281191;22;19938;-84
2022/11/20 12:26:32;;;;;;;;;;;;;;;10.27;100.00;100008.25;6281579;22;19919;-85
2022/11/20 12:29:21;;;;;;;;;;;;;;;10.26;100.00;100003.16;6280321;22;20246;-86
2022/11/20 12:31:52;;;;;;;;;;;;;;;10.23;100.00;100003.50;6220265;22;19919;-87
2022/11/20 12:34:20;;;;;;;;;;;;;;;10.47;100.00;99999.91;6277096;22;20000;-86
2022/11/20 12:36:55;;;;;;;;;;;;;;;10.53;100.00;99996.56;6277575;22;19911;-88
2022/11/20 12:39:23;;;;;;;;;;;;;;;10.59;100.00;99988.75;6277179;22;19911;-87
2022/11/20 12:45:23;;;;;;;;;;;;;;;10.62;100.00;99974.31;6288939;22;19911;-84
2022/11/20 12:47:49;;;;;;;;;;;;;;;10.78;100.00;99975.03;6209532;22;20215;-84
2022/11/20 12:50:14;;;;;;;;;;;;;;;10.86;100.00;99971.50;6276973;22;19918;-84
2022/11/20 12:52:48;;;;;;;;;;;;;;;10.83;100.00;99967.38;6276725;22;19918;-87
2022/11/20 12:55:17;;;;;;;;;;;;;;;10.90;100.00;99968.28;6276752;22;19918;-86
2022/11/20 12:57:58;;;;;;;;;;;;;;;10.90;100.00;99970.94;6276350;22;19942;-87